createdAt,value
2019-02-25T00:02:27.898Z,103065.81
2019-02-25T00:04:59.125Z,103061.00
2019-02-25T00:07:29.546Z,103064.91
2019-02-25T00:09:59.982Z,103058.17
2019-02-25T00:12:30.217Z,103058.09
2019-02-25T00:15:01.700Z,103058.45
2019-02-25T00:17:34.647Z,103057.02
2019-02-25T00:20:08.965Z,103056.47
2019-02-25T00:22:40.913Z,103055.66
2019-02-25T00:25:11.588Z,103057.59
2019-02-25T00:27:43.661Z,103055.38
2019-02-25T00:30:14.654Z,103057.52
2019-02-25T00:32:45.964Z,103056.85
2019-02-25T00:35:22.538Z,103056.51
2019-02-25T00:37:55.083Z,103056.70
2019-02-25T00:40:27.529Z,103059.51
2019-02-25T00:42:57.662Z,103057.34
2019-02-25T00:45:28.420Z,103055.78
2019-02-25T00:48:01.525Z,103059.48
2019-02-25T00:50:31.846Z,103053.52
2019-02-25T00:53:04.931Z,103052.33
2019-02-25T00:55:36.968Z,103056.47
2019-02-25T00:58:10.192Z,103056.59
2019-02-25T01:00:40.859Z,103045.17
2019-02-25T01:03:12.299Z,103042.88
2019-02-25T01:05:43.867Z,103037.27
2019-02-25T01:08:16.803Z,103045.73
2019-02-25T01:10:47.358Z,103049.14
2019-02-25T01:13:19.431Z,103053.78
2019-02-25T01:15:49.861Z,103042.45
2019-02-25T01:18:20.315Z,103038.23
2019-02-25T01:20:50.477Z,103031.34
2019-02-25T01:23:22.586Z,103042.51
2019-02-25T01:25:54.664Z,103035.57
2019-02-25T01:28:25.030Z,103035.02
2019-02-25T01:30:56.240Z,103030.59
2019-02-25T01:33:28.811Z,103026.59
2019-02-25T01:36:00.375Z,103022.59
2019-02-25T01:38:32.609Z,103019.69
2019-02-25T01:41:02.975Z,103020.79
2019-02-25T01:43:33.706Z,103026.55
2019-02-25T01:46:03.942Z,103022.71
2019-02-25T01:48:34.860Z,103028.08
2019-02-25T01:51:05.165Z,103026.30
2019-02-25T01:53:35.542Z,103027.61
2019-02-25T01:56:07.807Z,103021.78
2019-02-25T01:58:41.000Z,103013.66
2019-02-25T02:01:11.382Z,103016.59
2019-02-25T02:03:42.917Z,103017.95
2019-02-25T02:06:15.462Z,103025.28
2019-02-25T02:08:45.793Z,103026.55
2019-02-25T02:11:17.843Z,103023.66
2019-02-25T02:13:49.497Z,103025.70
2019-02-25T02:16:20.051Z,103023.36
2019-02-25T02:18:52.329Z,103025.41
2019-02-25T02:21:22.760Z,103026.17
2019-02-25T02:23:55.460Z,103028.77
2019-02-25T02:26:25.806Z,103024.45
2019-02-25T02:28:57.327Z,103021.06
2019-02-25T02:31:28.584Z,103015.74
2019-02-25T02:33:59.737Z,103014.33
2019-02-25T02:36:30.499Z,103022.30
2019-02-25T02:39:00.938Z,103029.44
2019-02-25T02:42:20.137Z,103029.48
2019-02-25T02:45:05.302Z,103029.95
2019-02-25T02:48:06.854Z,103023.44
2019-02-25T02:50:37.066Z,103034.20
2019-02-25T02:53:07.412Z,103042.98
2019-02-25T02:55:37.780Z,103036.97
2019-02-25T02:58:07.861Z,103043.35
2019-02-25T03:00:39.804Z,103046.20
2019-02-25T03:03:10.286Z,103043.98
2019-02-25T03:05:41.594Z,103046.63
2019-02-25T03:08:12.936Z,103040.80
2019-02-25T03:10:43.387Z,103040.59
2019-02-25T03:13:14.448Z,103039.56
2019-02-25T03:15:44.957Z,103036.20
2019-02-25T03:18:15.398Z,103034.66
2019-02-25T03:20:48.784Z,103025.73
2019-02-25T03:23:19.112Z,103023.59
2019-02-25T03:25:50.568Z,103015.13
2019-02-25T03:28:21.076Z,103021.25
2019-02-25T03:30:51.484Z,103021.41
2019-02-25T03:33:21.933Z,103029.02
2019-02-25T03:35:52.278Z,103028.60
2019-02-25T03:38:23.438Z,103027.42
2019-02-25T03:40:54.941Z,103022.64
2019-02-25T03:43:25.221Z,103019.58
2019-02-25T03:45:56.002Z,103024.13
2019-02-25T03:48:28.069Z,103029.18
2019-02-25T03:51:00.030Z,103026.42
2019-02-25T03:53:30.940Z,103021.20
2019-02-25T03:56:03.144Z,103026.97
2019-02-25T03:58:33.844Z,103024.59
2019-02-25T04:01:06.014Z,103024.68
2019-02-25T04:03:36.638Z,103029.41
2019-02-25T04:06:06.977Z,103025.91
2019-02-25T04:08:39.250Z,103018.14
2019-02-25T04:11:10.945Z,103019.33
2019-02-25T04:13:41.868Z,103027.58
2019-02-25T04:16:12.077Z,103028.24
2019-02-25T04:18:43.687Z,103022.38
2019-02-25T04:21:16.217Z,103014.00
2019-02-25T04:23:46.644Z,103017.98
2019-02-25T04:26:17.882Z,103011.52
2019-02-25T04:28:49.249Z,103013.66
2019-02-25T04:31:21.394Z,103011.34
2019-02-25T04:33:52.021Z,103012.53
2019-02-25T04:36:23.306Z,103006.54
2019-02-25T04:38:55.882Z,103010.45
2019-02-25T04:41:26.031Z,103008.33
2019-02-25T04:43:57.663Z,103013.28
2019-02-25T04:46:29.637Z,103009.31
2019-02-25T04:49:02.725Z,103021.80
2019-02-25T04:51:32.961Z,103019.81
2019-02-25T04:54:06.347Z,103017.77
2019-02-25T04:56:36.513Z,103015.59
2019-02-25T04:59:06.956Z,103008.33
2019-02-25T05:01:38.504Z,103010.22
2019-02-25T05:04:10.626Z,103017.30
2019-02-25T05:06:41.463Z,103012.72
2019-02-25T05:09:12.862Z,103016.27
2019-02-25T05:11:44.871Z,103008.33
2019-02-25T05:14:15.734Z,103004.80
2019-02-25T05:16:46.599Z,103007.25
2019-02-25T05:19:17.819Z,103016.17
2019-02-25T05:21:48.184Z,103021.07
2019-02-25T05:24:18.371Z,103015.09
2019-02-25T05:26:48.729Z,103015.13
2019-02-25T05:29:20.927Z,103008.00
2019-02-25T05:31:53.025Z,103012.59
2019-02-25T05:34:23.463Z,103016.36
2019-02-25T05:36:55.600Z,103015.84
2019-02-25T05:39:28.818Z,103023.35
2019-02-25T05:41:59.311Z,103030.44
2019-02-25T05:44:30.585Z,103034.97
2019-02-25T05:47:01.411Z,103025.84
2019-02-25T05:49:32.622Z,103036.39
2019-02-25T05:52:03.753Z,103040.06
2019-02-25T05:54:35.474Z,103041.95
2019-02-25T05:57:05.535Z,103042.67
2019-02-25T05:59:35.581Z,103052.54
2019-02-25T06:02:05.875Z,103052.34
2019-02-25T06:04:37.943Z,103052.16
2019-02-25T06:07:10.598Z,103054.94
2019-02-25T06:09:41.132Z,103053.10
2019-02-25T06:12:11.908Z,103055.00
2019-02-25T06:14:43.364Z,103057.06
2019-02-25T06:17:14.938Z,103055.56
2019-02-25T06:19:45.277Z,103056.13
2019-02-25T06:22:15.405Z,103050.61
2019-02-25T06:24:45.764Z,103054.52
2019-02-25T06:27:16.130Z,103059.72
2019-02-25T06:29:47.711Z,103063.74
2019-02-25T06:32:21.003Z,103061.23
2019-02-25T06:34:53.273Z,103064.26
2019-02-25T06:37:25.012Z,103072.28
2019-02-25T06:39:55.343Z,103076.39
2019-02-25T06:42:25.679Z,103080.30
2019-02-25T06:44:55.906Z,103076.73
2019-02-25T06:47:26.357Z,103071.62
2019-02-25T06:49:59.373Z,103064.95
2019-02-25T06:52:29.721Z,103068.52
2019-02-25T06:55:00.141Z,103061.91
2019-02-25T06:57:32.327Z,103061.54
2019-02-25T07:00:05.106Z,103061.13
2019-02-25T07:02:37.451Z,103068.55
2019-02-25T07:05:17.205Z,103067.11
2019-02-25T07:08:09.806Z,103066.69
2019-02-25T07:11:01.110Z,103060.25
2019-02-25T07:13:49.855Z,103059.12
2019-02-25T07:16:38.286Z,103054.33
2019-02-25T07:19:27.037Z,103050.76
2019-02-25T07:22:02.284Z,103052.56
2019-02-25T07:24:53.185Z,103058.83
2019-02-25T07:27:46.936Z,103054.30
2019-02-25T07:30:45.918Z,103057.77
2019-02-25T07:33:32.116Z,103056.48
2019-02-25T07:36:21.374Z,103056.91
2019-02-25T07:39:23.418Z,103063.31
2019-02-25T07:42:19.026Z,103068.77
2019-02-25T07:45:09.114Z,103071.39
2019-02-25T07:47:48.649Z,103077.50
2019-02-25T07:50:54.890Z,103083.20
2019-02-25T07:53:47.465Z,103090.39
2019-02-25T07:56:29.623Z,103092.65
2019-02-25T07:59:25.231Z,103102.44
2019-02-25T08:02:05.700Z,103104.64
2019-02-25T08:04:50.963Z,103110.95
2019-02-25T08:07:59.047Z,103109.64
2019-02-25T08:10:38.590Z,103113.72
2019-02-25T08:13:30.303Z,103115.63
2019-02-25T08:16:21.713Z,103112.12
2019-02-25T08:19:10.154Z,103117.70
2019-02-25T08:21:58.810Z,103125.78
2019-02-25T08:24:55.843Z,103130.24
2019-02-25T08:27:36.811Z,103130.88
2019-02-25T08:30:26.067Z,103124.23
2019-02-25T08:33:13.286Z,103123.48
2019-02-25T08:37:02.657Z,103114.44
2019-02-25T08:39:42.837Z,103106.17
2019-02-25T08:42:42.157Z,103104.69
2019-02-25T08:45:33.876Z,103103.16
2019-02-25T08:48:23.651Z,103105.10
2019-02-25T08:50:56.270Z,103100.13
2019-02-25T08:53:27.670Z,103098.48
2019-02-25T08:55:58.447Z,103104.84
2019-02-25T08:58:30.585Z,103109.00
2019-02-25T09:01:01.019Z,103104.09
2019-02-25T09:03:31.345Z,103109.56
2019-02-25T09:06:02.500Z,103107.97
2019-02-25T09:08:33.905Z,103111.44
2019-02-25T09:11:13.698Z,103121.65
2019-02-25T09:13:39.416Z,103123.78
2019-02-25T09:16:09.945Z,103127.91
2019-02-25T09:18:40.381Z,103127.05
2019-02-25T09:21:12.244Z,103124.04
2019-02-25T09:23:45.136Z,103122.42
2019-02-25T09:26:16.433Z,103124.81
2019-02-25T09:28:46.707Z,103125.20
2019-02-25T09:31:17.034Z,103134.91
2019-02-25T09:33:48.388Z,103141.08
2019-02-25T09:36:20.333Z,103147.08
2019-02-25T09:38:50.887Z,103134.06
2019-02-25T09:41:29.716Z,103126.12
2019-02-25T09:43:54.099Z,103125.70
2019-02-25T09:46:25.555Z,103135.07
2019-02-25T09:48:55.784Z,103130.47
2019-02-25T09:51:26.465Z,103128.97
2019-02-25T09:53:57.075Z,103128.64
2019-02-25T09:56:28.528Z,103136.98
2019-02-25T09:59:00.165Z,103123.41
2019-02-25T10:01:30.602Z,103122.52
2019-02-25T10:04:01.040Z,103124.70
2019-02-25T10:06:34.221Z,103118.11
2019-02-25T10:09:06.917Z,103122.35
2019-02-25T10:11:38.768Z,103123.38
2019-02-25T10:14:11.790Z,103119.62
2019-02-25T10:16:42.223Z,103117.81
2019-02-25T10:19:12.627Z,103117.14
2019-02-25T10:21:42.918Z,103114.02
2019-02-25T10:24:14.735Z,103114.50
2019-02-25T10:26:45.963Z,103117.69
2019-02-25T10:29:17.327Z,103107.84
2019-02-25T10:31:48.068Z,103102.01
2019-02-25T10:34:19.399Z,103099.58
2019-02-25T10:36:52.470Z,103091.13
2019-02-25T10:39:24.031Z,103096.69
2019-02-25T10:41:59.495Z,103091.92
2019-02-25T10:44:31.933Z,103079.27
2019-02-25T10:47:03.852Z,103073.13
2019-02-25T10:49:35.872Z,103078.53
2019-02-25T10:52:08.817Z,103074.25
2019-02-25T10:54:40.437Z,103070.33
2019-02-25T10:57:16.303Z,103063.80
2019-02-25T10:59:47.867Z,103058.12
2019-02-25T11:02:19.528Z,103059.75
2019-02-25T11:04:51.423Z,103063.25
2019-02-25T11:07:23.361Z,103051.57
2019-02-25T11:10:04.416Z,103042.38
2019-02-25T11:12:35.743Z,103042.27
2019-02-25T11:15:09.091Z,103028.59
2019-02-25T11:17:42.504Z,103021.87
2019-02-25T11:20:13.303Z,103017.78
2019-02-25T11:22:45.701Z,103020.86
2019-02-25T11:25:16.164Z,103014.09
2019-02-25T11:27:47.478Z,103002.27
2019-02-25T11:30:21.119Z,102994.59
2019-02-25T11:32:53.945Z,102999.29
2019-02-25T11:35:24.706Z,102990.05
2019-02-25T11:37:58.486Z,102983.94
2019-02-25T11:40:29.025Z,102984.09
2019-02-25T11:42:59.601Z,102980.45
2019-02-25T11:45:33.789Z,102980.64
2019-02-25T11:48:04.079Z,102983.68
2019-02-25T11:50:34.511Z,102982.22
2019-02-25T11:53:06.711Z,102987.61
2019-02-25T11:55:37.457Z,102984.85
2019-02-25T11:58:08.909Z,102979.28
2019-02-25T12:00:39.930Z,102974.17
2019-02-25T12:03:15.245Z,102973.69
2019-02-25T12:05:45.750Z,102969.09
2019-02-25T12:08:19.123Z,102962.14
2019-02-25T12:10:49.759Z,102953.53
2019-02-25T12:13:19.957Z,102950.66
2019-02-25T12:15:50.105Z,102951.06
2019-02-25T12:18:21.419Z,102961.94
2019-02-25T12:20:52.988Z,102964.05
2019-02-25T12:23:27.752Z,102961.09
2019-02-25T12:25:58.494Z,102951.17
2019-02-25T12:28:30.241Z,102940.50
2019-02-25T12:31:00.894Z,102943.50
2019-02-25T12:33:31.188Z,102939.30
2019-02-25T12:36:01.745Z,102933.04
2019-02-25T12:38:32.564Z,102933.72
2019-02-25T12:41:03.120Z,102931.98
2019-02-25T12:43:33.560Z,102931.86
2019-02-25T12:46:04.283Z,102922.55
2019-02-25T12:48:36.019Z,102917.44
2019-02-25T12:51:07.499Z,102912.10
2019-02-25T12:53:37.951Z,102921.59
2019-02-25T12:56:12.718Z,102922.90
2019-02-25T12:58:43.291Z,102921.17
2019-02-25T13:01:14.523Z,102922.04
2019-02-25T13:03:46.309Z,102917.70
2019-02-25T13:06:17.042Z,102913.55
2019-02-25T13:08:48.494Z,102908.78
2019-02-25T13:11:18.822Z,102910.34
2019-02-25T13:13:49.332Z,102912.45
2019-02-25T13:16:19.789Z,102917.92
2019-02-25T13:18:51.457Z,102907.58
2019-02-25T13:21:21.902Z,102902.62
2019-02-25T13:23:54.700Z,102905.59
2019-02-25T13:26:27.190Z,102909.36
2019-02-25T13:28:58.142Z,102916.06
2019-02-25T13:31:29.948Z,102912.10
2019-02-25T13:34:02.321Z,102911.85
2019-02-25T13:36:32.956Z,102913.72
2019-02-25T13:39:06.516Z,102917.13
2019-02-25T13:41:37.015Z,102912.48
2019-02-25T13:44:07.532Z,102906.92
2019-02-25T13:46:40.176Z,102909.55
2019-02-25T13:49:12.569Z,102909.87
2019-02-25T13:51:44.962Z,102909.42
2019-02-25T13:54:15.386Z,102915.91
2019-02-25T13:56:50.327Z,102904.61
2019-02-25T13:59:22.787Z,102900.08
2019-02-25T14:01:53.188Z,102904.60
2019-02-25T14:04:23.571Z,102905.14
2019-02-25T14:06:54.962Z,102896.57
2019-02-25T14:09:25.220Z,102892.55
2019-02-25T14:11:56.896Z,102893.63
2019-02-25T14:14:29.149Z,102890.05
2019-02-25T14:16:59.707Z,102881.41
2019-02-25T14:19:30.510Z,102883.09
2019-02-25T14:22:01.284Z,102883.77
2019-02-25T14:24:32.675Z,102878.85
2019-02-25T14:27:02.983Z,102875.62
2019-02-25T14:29:33.587Z,102872.27
2019-02-25T14:32:05.088Z,102867.35
2019-02-25T14:34:37.239Z,102866.78
2019-02-25T14:37:09.602Z,102864.22
2019-02-25T14:39:40.752Z,102861.87
2019-02-25T14:42:13.535Z,102857.88
2019-02-25T14:44:49.984Z,102854.80
2019-02-25T14:47:25.790Z,102851.06
2019-02-25T14:49:55.364Z,102847.66
2019-02-25T14:52:29.387Z,102849.95
2019-02-25T14:55:01.558Z,102852.36
2019-02-25T14:57:35.621Z,102851.98
2019-02-25T15:00:10.383Z,102855.97
2019-02-25T15:02:41.369Z,102853.47
2019-02-25T15:05:15.030Z,102837.58
2019-02-25T15:07:48.681Z,102838.03
2019-02-25T15:10:19.673Z,102840.22
2019-02-25T15:12:58.661Z,102836.35
2019-02-25T15:15:26.789Z,102829.16
2019-02-25T15:17:57.952Z,102827.23
2019-02-25T15:20:28.964Z,102832.44
2019-02-25T15:22:59.487Z,102827.20
2019-02-25T15:25:33.957Z,102833.02
2019-02-25T15:28:09.351Z,102825.35
2019-02-25T15:30:39.671Z,102826.59
2019-02-25T15:33:10.248Z,102823.89
2019-02-25T15:35:43.381Z,102815.69
2019-02-25T15:38:14.174Z,102814.97
2019-02-25T15:40:44.604Z,102812.24
2019-02-25T15:43:18.147Z,102813.02
2019-02-25T15:45:48.177Z,102808.48
2019-02-25T15:48:20.290Z,102808.48
2019-02-25T15:50:55.593Z,102817.07
2019-02-25T15:53:26.961Z,102814.39
2019-02-25T15:56:01.341Z,102813.23
2019-02-25T15:58:32.673Z,102812.12
2019-02-25T16:01:05.985Z,102814.62
2019-02-25T16:03:37.142Z,102813.70
2019-02-25T16:06:11.671Z,102822.88
2019-02-25T16:08:45.294Z,102822.86
2019-02-25T16:11:20.721Z,102817.15
2019-02-25T16:13:55.729Z,102830.39
2019-02-25T16:16:26.996Z,102830.98
2019-02-25T16:18:58.370Z,102830.76
2019-02-25T16:21:31.715Z,102825.84
2019-02-25T16:24:04.826Z,102829.63
2019-02-25T16:26:36.110Z,102828.02
2019-02-25T16:29:09.112Z,102834.41
2019-02-25T16:31:41.137Z,102832.45
2019-02-25T16:34:14.333Z,102835.27
2019-02-25T16:36:49.691Z,102834.84
2019-02-25T16:39:19.154Z,102840.81
2019-02-25T16:41:51.437Z,102842.18
2019-02-25T16:44:21.853Z,102844.62
2019-02-25T16:46:54.059Z,102843.05
2019-02-25T16:49:24.773Z,102845.39
2019-02-25T16:52:00.349Z,102849.02
2019-02-25T16:54:31.526Z,102840.95
2019-02-25T16:57:03.861Z,102852.08
2019-02-25T16:59:35.517Z,102854.92
2019-02-25T17:02:07.034Z,102858.12
2019-02-25T17:04:38.930Z,102852.25
2019-02-25T17:07:11.780Z,102846.75
2019-02-25T17:09:44.209Z,102845.67
2019-02-25T17:12:15.935Z,102844.97
2019-02-25T17:14:46.925Z,102843.83
2019-02-25T17:17:17.331Z,102849.55
2019-02-25T17:19:48.057Z,102850.14
2019-02-25T17:22:20.837Z,102846.41
2019-02-25T17:24:54.287Z,102844.33
2019-02-25T17:27:28.564Z,102839.23
2019-02-25T17:29:59.863Z,102838.89
2019-02-25T17:32:31.470Z,102836.81
2019-02-25T17:35:05.238Z,102841.25
2019-02-25T17:37:37.786Z,102842.59
2019-02-25T17:40:12.923Z,102854.34
2019-02-25T17:42:44.950Z,102852.25
2019-02-25T17:45:18.420Z,102849.25
2019-02-25T17:47:48.789Z,102850.59
2019-02-25T17:50:19.833Z,102855.77
2019-02-25T17:52:50.367Z,102856.20
2019-02-25T17:55:20.900Z,102854.50
2019-02-25T17:57:52.008Z,102861.84
2019-02-25T18:00:49.830Z,102863.59
2019-02-25T18:03:21.683Z,102862.31
2019-02-25T18:05:56.297Z,102860.23
2019-02-25T18:08:27.955Z,102861.15
2019-02-25T18:10:59.928Z,102861.62
2019-02-25T18:13:32.451Z,102866.79
2019-02-25T18:16:03.567Z,102869.87
2019-02-25T18:18:36.613Z,102873.77
2019-02-25T18:21:08.419Z,102875.09
2019-02-25T18:23:39.852Z,102871.67
2019-02-25T18:26:12.427Z,102877.27
2019-02-25T18:28:43.841Z,102863.06
2019-02-25T18:31:20.249Z,102871.70
2019-02-25T18:33:52.738Z,102869.57
2019-02-25T18:36:26.477Z,102863.97
2019-02-25T18:38:56.780Z,102865.69
2019-02-25T18:41:31.395Z,102858.36
2019-02-25T18:44:01.468Z,102856.64
2019-02-25T18:46:32.355Z,102851.04
2019-02-25T18:49:05.644Z,102850.61
2019-02-25T18:51:39.462Z,102844.13
2019-02-25T18:54:10.032Z,102848.01
2019-02-25T18:56:43.004Z,102846.25
2019-02-25T18:59:17.746Z,102842.80
2019-02-25T19:01:51.456Z,102841.06
2019-02-25T19:04:22.457Z,102844.09
2019-02-25T19:06:53.215Z,102842.36
2019-02-25T19:09:26.038Z,102841.91
2019-02-25T19:11:58.658Z,102847.04
2019-02-25T19:14:31.539Z,102843.61
2019-02-25T19:17:06.524Z,102839.30
2019-02-25T19:19:38.561Z,102836.72
2019-02-25T19:22:12.646Z,102837.97
2019-02-25T19:24:47.234Z,102840.05
2019-02-25T19:27:18.035Z,102834.00
2019-02-25T19:29:54.559Z,102839.14
2019-02-25T19:32:26.874Z,102839.53
2019-02-25T19:35:01.901Z,102836.47
2019-02-25T19:37:38.253Z,102831.66
2019-02-25T19:40:13.950Z,102835.89
2019-02-25T19:42:51.308Z,102831.11
2019-02-25T19:45:21.166Z,102833.05
2019-02-25T19:47:52.480Z,102837.62
2019-02-25T19:50:25.933Z,102837.53
2019-02-25T19:53:02.491Z,102831.41
2019-02-25T19:55:33.772Z,102833.06
2019-02-25T19:58:04.480Z,102833.49
2019-02-25T20:00:35.950Z,102834.35
2019-02-25T20:03:07.533Z,102836.94
2019-02-25T20:05:43.313Z,102830.93
2019-02-25T20:08:15.788Z,102831.77
2019-02-25T20:10:49.821Z,102836.89
2019-02-25T20:13:22.709Z,102831.75
2019-02-25T20:15:56.547Z,102839.40
2019-02-25T20:18:27.019Z,102835.45
2019-02-25T20:20:59.368Z,102829.84
2019-02-25T20:23:31.000Z,102834.52
2019-02-25T20:26:02.739Z,102831.84
2019-02-25T20:28:35.830Z,102842.10
2019-02-25T20:31:08.347Z,102852.73
2019-02-25T20:33:39.173Z,102862.10
2019-02-25T20:36:09.930Z,102865.11
2019-02-25T20:38:40.556Z,102865.56
2019-02-25T20:41:16.036Z,102864.27
2019-02-25T20:43:47.229Z,102867.25
2019-02-25T20:46:23.927Z,102869.34
2019-02-25T20:48:56.075Z,102871.42
2019-02-25T20:51:29.819Z,102865.75
2019-02-25T20:54:02.084Z,102876.33
2019-02-25T20:56:33.294Z,102889.57
2019-02-25T20:59:06.169Z,102883.94
2019-02-25T21:01:42.321Z,102883.00
2019-02-25T21:04:13.511Z,102876.11
2019-02-25T21:06:44.506Z,102879.52
2019-02-25T21:09:15.675Z,102878.11
2019-02-25T21:11:45.832Z,102875.02
2019-02-25T21:14:16.786Z,102868.11
2019-02-25T21:16:48.966Z,102864.98
2019-02-25T21:19:20.064Z,102862.33
2019-02-25T21:21:55.061Z,102857.55
2019-02-25T21:24:24.613Z,102858.80
2019-02-25T21:26:59.613Z,102848.87
2019-02-25T21:29:31.852Z,102836.03
2019-02-25T21:32:05.851Z,102826.61
2019-02-25T21:34:36.238Z,102827.27
2019-02-25T21:37:06.282Z,102825.67
2019-02-25T21:39:38.238Z,102821.30
2019-02-25T21:42:10.806Z,102812.66
2019-02-25T21:44:40.887Z,102802.42
2019-02-25T21:47:11.583Z,102797.39
2019-02-25T21:49:41.887Z,102791.67
2019-02-25T21:52:15.422Z,102798.73
2019-02-25T21:54:46.807Z,102808.11
2019-02-25T21:57:17.280Z,102814.25
2019-02-25T21:59:50.364Z,102812.22
2019-02-25T22:02:22.228Z,102816.05
2019-02-25T22:04:53.965Z,102806.05
2019-02-25T22:07:26.765Z,102802.06
2019-02-25T22:09:56.697Z,102810.02
2019-02-25T22:12:28.900Z,102810.73
2019-02-25T22:14:59.092Z,102810.19
2019-02-25T22:17:29.422Z,102804.45
2019-02-25T22:19:59.440Z,102811.20
2019-02-25T22:22:31.089Z,102816.28
2019-02-25T22:25:05.925Z,102819.55
2019-02-25T22:27:36.851Z,102817.36
2019-02-25T22:30:09.848Z,102814.34
2019-02-25T22:32:40.796Z,102801.85
2019-02-25T22:35:14.903Z,102796.75
2019-02-25T22:37:49.349Z,102798.84
2019-02-25T22:40:17.553Z,102801.76
2019-02-25T22:42:50.049Z,102800.95
2019-02-25T22:45:19.713Z,102799.17
2019-02-25T22:47:49.737Z,102799.17
2019-02-25T22:50:19.760Z,102802.95
2019-02-25T22:52:55.610Z,102798.28
2019-02-25T22:55:22.688Z,102799.20
2019-02-25T22:57:54.084Z,102794.44
2019-02-25T23:00:33.349Z,102798.28
2019-02-25T23:03:04.603Z,102794.90
2019-02-25T23:05:34.548Z,102792.41
2019-02-25T23:08:04.539Z,102788.16
2019-02-25T23:10:38.039Z,102783.84
2019-02-25T23:13:06.731Z,102780.33
2019-02-25T23:15:36.857Z,102778.56
2019-02-25T23:18:10.032Z,102772.59
2019-02-25T23:20:38.843Z,102770.38
2019-02-25T23:23:08.782Z,102766.08
2019-02-25T23:25:38.784Z,102765.25
2019-02-25T23:28:09.212Z,102770.83
2019-02-25T23:30:40.726Z,102771.16
2019-02-25T23:33:14.470Z,102761.20
2019-02-25T23:35:46.971Z,102756.81
2019-02-25T23:38:17.308Z,102764.45
2019-02-25T23:40:49.453Z,102762.30
2019-02-25T23:43:19.917Z,102766.58
2019-02-25T23:45:50.321Z,102767.41
2019-02-25T23:48:21.565Z,102780.66
2019-02-25T23:50:54.945Z,102772.93
2019-02-25T23:53:28.234Z,102778.40
2019-02-25T23:55:58.769Z,102778.40
2019-02-25T23:58:29.220Z,102778.69
